createdAt,value
2023-01-18T00:01:19.931Z,75.26
2023-01-18T00:03:46.881Z,75.81
2023-01-18T00:06:13.756Z,75.81
2023-01-18T00:08:42.308Z,76.12
2023-01-18T00:11:15.472Z,75.59
2023-01-18T00:13:42.426Z,75.38
2023-01-18T00:16:13.980Z,76.01
2023-01-18T00:18:40.690Z,75.14
2023-01-18T00:21:10.082Z,76.24
2023-01-18T00:23:37.118Z,75.62
2023-01-18T00:26:09.680Z,76.36
2023-01-18T00:28:36.886Z,76.49
2023-01-18T00:31:13.100Z,76.78
2023-01-18T00:33:42.680Z,76.71
2023-01-18T00:36:09.146Z,76.04
2023-01-18T00:38:35.562Z,76.36
2023-01-18T00:41:02.269Z,76.71
2023-01-18T00:43:40.969Z,77.07
2023-01-18T00:46:19.346Z,77.21
2023-01-18T00:48:46.064Z,77.03
2023-01-18T00:51:15.933Z,77.00
2023-01-18T00:53:46.357Z,76.50
2023-01-18T00:56:16.111Z,76.77
2023-01-18T00:58:42.913Z,76.33
2023-01-18T01:01:10.583Z,76.18
2023-01-18T01:03:56.895Z,76.50
2023-01-18T01:06:46.519Z,76.21
2023-01-18T01:09:23.638Z,76.32
2023-01-18T01:12:09.561Z,75.59
2023-01-18T01:15:04.665Z,75.73
2023-01-18T01:17:51.169Z,75.66
2023-01-18T01:20:36.514Z,75.82
2023-01-18T01:23:36.390Z,75.78
2023-01-18T01:26:08.008Z,75.33
2023-01-18T01:28:36.374Z,75.65
2023-01-18T01:31:05.019Z,75.37
2023-01-18T01:33:32.748Z,75.43
2023-01-18T01:36:01.553Z,75.19
2023-01-18T01:38:28.773Z,75.20
2023-01-18T01:40:56.651Z,75.21
2023-01-18T01:43:41.740Z,75.64
2023-01-18T01:46:23.532Z,75.88
2023-01-18T01:48:56.903Z,75.29
2023-01-18T01:51:23.734Z,75.86
2023-01-18T01:53:51.516Z,75.50
2023-01-18T01:56:20.765Z,75.72
2023-01-18T01:58:51.504Z,75.39
2023-01-18T02:01:18.115Z,75.08
2023-01-18T02:03:45.350Z,75.35
2023-01-18T02:06:31.084Z,75.67
2023-01-18T02:09:02.701Z,75.79
2023-01-18T02:11:29.572Z,75.54
2023-01-18T02:14:01.208Z,76.62
2023-01-18T02:16:39.844Z,76.59
2023-01-18T02:19:24.771Z,76.30
2023-01-18T02:22:00.704Z,77.01
2023-01-18T02:24:45.021Z,76.60
2023-01-18T02:27:32.011Z,77.13
2023-01-18T02:30:14.527Z,77.61
2023-01-18T02:32:44.415Z,77.71
2023-01-18T02:35:15.803Z,77.65
2023-01-18T02:38:05.537Z,77.27
2023-01-18T02:40:53.207Z,77.43
2023-01-18T02:43:39.691Z,77.05
2023-01-18T02:46:26.856Z,77.05
2023-01-18T02:48:53.570Z,77.59
2023-01-18T02:51:20.066Z,77.66
2023-01-18T02:53:48.421Z,77.54
2023-01-18T02:56:20.750Z,77.06
2023-01-18T02:58:51.619Z,77.19
2023-01-18T03:01:27.291Z,77.52
2023-01-18T03:04:17.799Z,77.73
2023-01-18T03:06:49.003Z,77.70
2023-01-18T03:09:18.537Z,77.44
2023-01-18T03:12:16.028Z,77.97
2023-01-18T03:15:04.964Z,78.04
2023-01-18T03:17:41.541Z,77.35
2023-01-18T03:20:14.916Z,77.61
2023-01-18T03:23:15.184Z,77.97
2023-01-18T03:25:45.362Z,77.38
2023-01-18T03:28:52.974Z,77.38
2023-01-18T03:31:47.137Z,77.47
2023-01-18T03:34:25.980Z,77.85
2023-01-18T03:36:56.200Z,77.29
2023-01-18T03:39:24.999Z,77.16
2023-01-18T03:42:05.435Z,77.10
2023-01-18T03:44:41.049Z,77.41
2023-01-18T03:47:08.086Z,78.01
2023-01-18T03:49:35.222Z,78.13
2023-01-18T03:52:16.940Z,77.69
2023-01-18T03:55:21.728Z,77.87
2023-01-18T03:57:54.740Z,77.61
2023-01-18T04:00:21.419Z,77.25
2023-01-18T04:02:49.323Z,77.41
2023-01-18T04:05:16.915Z,76.93
2023-01-18T04:07:43.344Z,76.87
2023-01-18T04:10:10.687Z,76.91
2023-01-18T04:12:37.217Z,76.61
2023-01-18T04:15:04.398Z,76.45
2023-01-18T04:17:30.907Z,75.84
2023-01-18T04:19:57.424Z,75.98
2023-01-18T04:22:24.232Z,75.98
2023-01-18T04:24:50.733Z,75.79
2023-01-18T04:27:17.419Z,75.59
2023-01-18T04:29:43.846Z,75.91
2023-01-18T04:32:10.231Z,75.79
2023-01-18T04:34:36.792Z,75.53
2023-01-18T04:37:03.281Z,75.57
2023-01-18T04:39:29.700Z,75.41
2023-01-18T04:41:57.271Z,75.64
2023-01-18T04:44:23.901Z,75.14
2023-01-18T04:46:51.258Z,75.59
2023-01-18T04:49:17.776Z,75.90
2023-01-18T04:51:46.113Z,76.32
2023-01-18T04:54:16.066Z,76.19
2023-01-18T04:56:42.755Z,76.37
2023-01-18T04:59:14.458Z,76.16
2023-01-18T05:01:40.921Z,76.75
2023-01-18T05:04:07.484Z,76.57
2023-01-18T05:06:33.905Z,76.27
2023-01-18T05:09:00.336Z,76.24
2023-01-18T05:11:27.028Z,76.77
2023-01-18T05:13:53.440Z,77.11
2023-01-18T05:16:22.054Z,77.30
2023-01-18T05:18:48.952Z,76.75
2023-01-18T05:21:15.499Z,76.62
2023-01-18T05:23:42.551Z,76.51
2023-01-18T05:26:16.021Z,76.80
2023-01-18T05:28:43.303Z,76.34
2023-01-18T05:31:10.255Z,76.38
2023-01-18T05:33:37.001Z,76.35
2023-01-18T05:36:03.805Z,76.46
2023-01-18T05:38:30.367Z,77.05
2023-01-18T05:40:57.391Z,76.75
2023-01-18T05:43:26.594Z,76.54
2023-01-18T05:45:53.070Z,77.36
2023-01-18T05:48:20.432Z,77.50
2023-01-18T05:50:48.452Z,77.93
2023-01-18T05:53:17.531Z,78.32
2023-01-18T05:55:44.642Z,78.61
2023-01-18T05:58:11.685Z,78.75
2023-01-18T06:00:38.088Z,78.82
2023-01-18T06:03:04.457Z,79.15
2023-01-18T06:05:30.999Z,78.96
2023-01-18T06:07:57.513Z,79.07
2023-01-18T06:10:23.957Z,79.25
2023-01-18T06:12:50.545Z,79.54
2023-01-18T06:15:19.632Z,79.40
2023-01-18T06:17:49.084Z,79.17
2023-01-18T06:20:16.004Z,79.00
2023-01-18T06:22:42.515Z,79.21
2023-01-18T06:25:09.998Z,78.98
2023-01-18T06:27:37.756Z,79.41
2023-01-18T06:30:06.237Z,79.39
2023-01-18T06:32:33.296Z,79.97
2023-01-18T06:34:59.774Z,79.45
2023-01-18T06:37:26.437Z,79.46
2023-01-18T06:39:52.887Z,79.86
2023-01-18T06:42:19.272Z,79.82
2023-01-18T06:44:45.753Z,79.99
2023-01-18T06:47:15.479Z,79.90
2023-01-18T06:49:41.869Z,79.95
2023-01-18T06:52:08.676Z,79.78
2023-01-18T06:54:35.856Z,79.88
2023-01-18T06:57:02.405Z,80.30
2023-01-18T06:59:28.805Z,80.58
2023-01-18T07:01:55.333Z,80.38
2023-01-18T07:04:22.029Z,80.41
2023-01-18T07:06:48.653Z,80.28
2023-01-18T07:09:15.058Z,80.21
2023-01-18T07:11:43.280Z,80.29
2023-01-18T07:14:13.210Z,80.52
2023-01-18T07:16:39.783Z,80.07
2023-01-18T07:19:06.241Z,80.43
2023-01-18T07:21:32.747Z,80.25
2023-01-18T07:23:59.745Z,80.43
2023-01-18T07:26:26.432Z,81.00
2023-01-18T07:28:54.711Z,80.63
2023-01-18T07:31:21.310Z,80.33
2023-01-18T07:33:47.714Z,80.04
2023-01-18T07:36:14.437Z,80.30
2023-01-18T07:38:41.206Z,80.31
2023-01-18T07:41:10.671Z,80.31
2023-01-18T07:43:37.709Z,80.22
2023-01-18T07:46:05.311Z,80.44
2023-01-18T07:48:32.330Z,80.25
2023-01-18T07:51:03.546Z,80.51
2023-01-18T07:53:31.507Z,80.12
2023-01-18T07:56:02.343Z,81.07
2023-01-18T07:58:29.279Z,80.52
2023-01-18T08:01:01.664Z,81.25
2023-01-18T08:03:28.075Z,80.83
2023-01-18T08:05:54.579Z,81.17
2023-01-18T08:08:20.975Z,81.00
2023-01-18T08:10:47.344Z,81.55
2023-01-18T08:13:13.739Z,81.57
2023-01-18T08:15:40.639Z,82.03
2023-01-18T08:18:08.544Z,81.54
2023-01-18T08:20:35.239Z,81.83
2023-01-18T08:23:02.520Z,81.43
2023-01-18T08:25:30.175Z,81.51
2023-01-18T08:28:00.445Z,81.21
2023-01-18T08:30:37.539Z,80.93
2023-01-18T08:33:05.603Z,81.16
2023-01-18T08:35:34.805Z,81.07
2023-01-18T08:38:02.263Z,80.72
2023-01-18T08:40:29.894Z,80.56
2023-01-18T08:42:58.708Z,80.53
2023-01-18T08:45:26.185Z,79.67
2023-01-18T08:48:18.906Z,80.09
2023-01-18T08:50:46.369Z,79.42
2023-01-18T08:53:13.328Z,79.07
2023-01-18T08:55:40.493Z,78.68
2023-01-18T08:58:07.307Z,78.15
2023-01-18T09:00:33.766Z,77.61
2023-01-18T09:03:02.956Z,77.46
2023-01-18T09:05:29.999Z,77.28
2023-01-18T09:07:57.804Z,77.29
2023-01-18T09:10:24.321Z,77.61
2023-01-18T09:12:55.239Z,77.04
2023-01-18T09:15:21.683Z,76.78
2023-01-18T09:17:48.111Z,76.64
2023-01-18T09:20:16.537Z,76.38
2023-01-18T09:22:45.444Z,75.95
2023-01-18T09:25:11.975Z,76.00
2023-01-18T09:27:38.371Z,75.58
2023-01-18T09:30:06.746Z,76.14
2023-01-18T09:32:33.172Z,75.87
2023-01-18T09:34:59.592Z,75.30
2023-01-18T09:37:26.144Z,75.28
2023-01-18T09:39:52.844Z,75.12
2023-01-18T09:42:25.244Z,74.71
2023-01-18T09:44:56.812Z,74.19
2023-01-18T09:47:31.211Z,73.78
2023-01-18T09:50:00.159Z,73.74
2023-01-18T09:52:32.406Z,72.95
2023-01-18T09:55:17.068Z,72.58
2023-01-18T09:58:02.614Z,73.40
2023-01-18T10:00:32.142Z,72.81
2023-01-18T10:03:02.664Z,72.10
2023-01-18T10:05:47.351Z,70.77
2023-01-18T10:08:18.280Z,70.06
2023-01-18T10:11:09.987Z,69.94
2023-01-18T10:13:44.929Z,69.59
2023-01-18T10:16:14.800Z,69.00
2023-01-18T10:18:51.531Z,68.79
2023-01-18T10:21:47.448Z,68.63
2023-01-18T10:24:22.063Z,67.30
2023-01-18T10:26:52.867Z,66.66
2023-01-18T10:29:31.140Z,66.42
2023-01-18T10:32:03.317Z,66.38
2023-01-18T10:34:35.441Z,65.71
2023-01-18T10:37:37.421Z,65.78
2023-01-18T10:40:07.646Z,64.76
2023-01-18T10:42:33.971Z,65.77
2023-01-18T10:45:00.341Z,64.88
2023-01-18T10:47:26.887Z,63.57
2023-01-18T10:49:59.502Z,63.85
2023-01-18T10:52:29.990Z,62.88
2023-01-18T10:54:58.217Z,62.85
2023-01-18T10:57:29.781Z,62.83
2023-01-18T10:59:57.339Z,62.68
2023-01-18T11:02:30.428Z,63.26
2023-01-18T11:05:15.485Z,63.24
2023-01-18T11:07:42.475Z,62.10
2023-01-18T11:10:27.478Z,62.54
2023-01-18T11:12:54.263Z,62.40
2023-01-18T11:15:26.957Z,62.78
2023-01-18T11:18:00.658Z,62.33
2023-01-18T11:20:50.300Z,62.46
2023-01-18T11:23:21.408Z,62.44
2023-01-18T11:26:01.156Z,62.26
2023-01-18T11:28:39.310Z,62.19
2023-01-18T11:31:16.140Z,62.06
2023-01-18T11:33:54.820Z,62.26
2023-01-18T11:36:43.246Z,61.80
2023-01-18T11:39:31.586Z,62.09
2023-01-18T11:42:35.063Z,61.96
2023-01-18T11:45:12.367Z,62.72
2023-01-18T11:47:59.663Z,63.46
2023-01-18T11:50:44.815Z,62.71
2023-01-18T11:53:23.668Z,62.90
2023-01-18T11:56:05.731Z,62.36
2023-01-18T11:58:34.115Z,61.30
2023-01-18T12:01:21.773Z,61.41
2023-01-18T12:04:17.447Z,62.17
2023-01-18T12:07:25.476Z,62.10
2023-01-18T12:09:55.801Z,60.59
2023-01-18T12:12:37.189Z,59.50
2023-01-18T12:15:25.630Z,59.94
2023-01-18T12:18:13.452Z,60.18
2023-01-18T12:20:43.417Z,60.33
2023-01-18T12:23:35.214Z,60.52
2023-01-18T12:26:12.504Z,60.04
2023-01-18T12:29:01.076Z,59.97
2023-01-18T12:32:00.137Z,59.64
2023-01-18T12:34:41.460Z,59.59
2023-01-18T12:37:19.842Z,58.93
2023-01-18T12:40:05.895Z,58.51
2023-01-18T12:42:56.042Z,57.28
2023-01-18T12:45:31.613Z,56.60
2023-01-18T12:48:17.050Z,57.13
2023-01-18T12:50:48.751Z,56.29
2023-01-18T12:53:23.559Z,56.15
2023-01-18T12:55:53.747Z,55.87
2023-01-18T12:58:22.664Z,56.18
2023-01-18T13:00:54.546Z,56.25
2023-01-18T13:03:25.992Z,55.72
2023-01-18T13:05:57.902Z,55.73
2023-01-18T13:08:27.146Z,55.65
2023-01-18T13:11:02.058Z,55.08
2023-01-18T13:13:30.985Z,55.36
2023-01-18T13:16:19.222Z,55.24
2023-01-18T13:18:51.822Z,55.05
2023-01-18T13:21:36.520Z,55.29
2023-01-18T13:24:14.760Z,55.25
2023-01-18T13:26:41.894Z,54.20
2023-01-18T13:29:29.707Z,54.65
2023-01-18T13:31:57.152Z,53.81
2023-01-18T13:34:25.728Z,54.12
2023-01-18T13:36:55.854Z,54.06
2023-01-18T13:39:31.642Z,53.86
2023-01-18T13:42:03.779Z,54.13
2023-01-18T13:44:39.381Z,53.69
2023-01-18T13:47:46.076Z,53.13
2023-01-18T13:50:39.797Z,53.23
2023-01-18T13:53:15.309Z,53.35
2023-01-18T13:55:46.245Z,53.18
2023-01-18T13:58:28.395Z,52.55
2023-01-18T14:00:58.495Z,52.53
2023-01-18T14:03:33.113Z,52.57
2023-01-18T14:06:09.077Z,53.07
2023-01-18T14:08:39.765Z,53.23
2023-01-18T14:11:09.361Z,53.13
2023-01-18T14:13:44.706Z,53.30
2023-01-18T14:16:36.174Z,53.24
2023-01-18T14:19:21.619Z,54.24
2023-01-18T14:22:06.237Z,54.18
2023-01-18T14:25:01.339Z,55.26
2023-01-18T14:27:33.128Z,55.15
2023-01-18T14:30:23.295Z,55.70
2023-01-18T14:33:19.419Z,55.79
2023-01-18T14:35:54.429Z,56.50
2023-01-18T14:38:21.324Z,56.46
2023-01-18T14:40:51.239Z,56.79
2023-01-18T14:43:29.541Z,57.82
2023-01-18T14:46:10.036Z,58.36
2023-01-18T14:48:51.758Z,58.72
2023-01-18T14:51:26.500Z,59.38
2023-01-18T14:53:58.046Z,59.72
2023-01-18T14:56:30.138Z,60.33
2023-01-18T14:59:03.024Z,60.78
2023-01-18T15:01:36.952Z,61.06
2023-01-18T15:04:07.239Z,61.50
2023-01-18T15:06:47.505Z,62.28
2023-01-18T15:09:13.995Z,62.42
2023-01-18T15:11:42.591Z,63.11
2023-01-18T15:14:25.534Z,63.32
2023-01-18T15:16:55.011Z,63.86
2023-01-18T15:19:36.065Z,64.35
2023-01-18T15:22:04.343Z,64.56
2023-01-18T15:24:38.911Z,65.20
2023-01-18T15:27:05.585Z,65.69
2023-01-18T15:29:35.903Z,66.08
2023-01-18T15:32:23.675Z,66.43
2023-01-18T15:34:52.166Z,66.54
2023-01-18T15:37:38.927Z,67.18
2023-01-18T15:40:14.660Z,67.90
2023-01-18T15:42:52.095Z,68.09
2023-01-18T15:45:18.484Z,67.96
2023-01-18T15:48:22.720Z,68.18
2023-01-18T15:50:51.859Z,68.11
2023-01-18T15:53:35.788Z,68.88
2023-01-18T15:56:06.162Z,69.00
2023-01-18T15:58:38.904Z,69.70
2023-01-18T16:01:16.328Z,69.09
2023-01-18T16:03:46.269Z,70.20
2023-01-18T16:06:13.845Z,69.94
2023-01-18T16:08:59.790Z,70.25
2023-01-18T16:11:30.798Z,70.41
2023-01-18T16:14:02.902Z,71.31
2023-01-18T16:16:29.835Z,70.67
2023-01-18T16:19:01.086Z,71.35
2023-01-18T16:21:40.510Z,71.97
2023-01-18T16:24:18.499Z,72.84
2023-01-18T16:26:45.681Z,72.21
2023-01-18T16:29:13.277Z,72.48
2023-01-18T16:31:43.079Z,72.90
2023-01-18T16:34:20.144Z,73.38
2023-01-18T16:36:47.654Z,72.71
2023-01-18T16:39:14.267Z,72.94
2023-01-18T16:41:42.920Z,73.24
2023-01-18T16:44:11.282Z,73.28
2023-01-18T16:46:38.019Z,72.62
2023-01-18T16:49:09.611Z,73.45
2023-01-18T16:51:36.099Z,72.84
2023-01-18T16:54:02.818Z,73.53
2023-01-18T16:56:29.245Z,73.54
2023-01-18T16:58:55.681Z,73.40
2023-01-18T17:01:22.157Z,73.88
2023-01-18T17:03:50.208Z,73.87
2023-01-18T17:06:20.676Z,73.94
2023-01-18T17:08:49.114Z,73.81
2023-01-18T17:11:15.591Z,73.38
2023-01-18T17:13:42.406Z,73.68
2023-01-18T17:16:19.314Z,74.26
2023-01-18T17:18:46.409Z,73.78
2023-01-18T17:21:13.052Z,73.42
2023-01-18T17:23:39.847Z,73.91
2023-01-18T17:26:08.046Z,73.53
2023-01-18T17:28:34.565Z,73.15
2023-01-18T17:31:01.366Z,74.57
2023-01-18T17:33:28.307Z,73.98
2023-01-18T17:35:55.018Z,74.53
2023-01-18T17:38:24.906Z,73.96
2023-01-18T17:40:53.120Z,73.89
2023-01-18T17:43:32.171Z,74.32
2023-01-18T17:46:02.565Z,74.88
2023-01-18T17:48:29.196Z,74.91
2023-01-18T17:50:55.787Z,74.63
2023-01-18T17:53:22.191Z,74.09
2023-01-18T17:55:48.589Z,74.30
2023-01-18T17:58:14.971Z,74.71
2023-01-18T18:00:41.457Z,75.01
2023-01-18T18:03:09.142Z,74.96
2023-01-18T18:05:35.820Z,75.12
2023-01-18T18:08:02.683Z,74.59
2023-01-18T18:10:29.176Z,74.65
2023-01-18T18:12:55.555Z,74.79
2023-01-18T18:15:23.371Z,74.57
2023-01-18T18:17:49.779Z,74.91
2023-01-18T18:20:16.948Z,74.97
2023-01-18T18:22:43.548Z,75.05
2023-01-18T18:25:10.154Z,75.10
2023-01-18T18:27:45.303Z,75.07
2023-01-18T18:30:13.081Z,74.42
2023-01-18T18:32:39.843Z,74.41
2023-01-18T18:35:23.234Z,74.38
2023-01-18T18:37:50.857Z,74.25
2023-01-18T18:40:18.221Z,74.21
2023-01-18T18:42:52.729Z,74.20
2023-01-18T18:45:24.459Z,74.04
2023-01-18T18:47:51.839Z,74.06
2023-01-18T18:50:18.789Z,74.01
2023-01-18T18:52:45.267Z,73.90
2023-01-18T18:55:11.697Z,73.97
2023-01-18T18:57:38.101Z,73.57
2023-01-18T19:00:08.530Z,73.79
2023-01-18T19:02:35.340Z,73.54
2023-01-18T19:05:02.208Z,72.92
2023-01-18T19:07:28.760Z,73.26
2023-01-18T19:09:55.620Z,73.15
2023-01-18T19:12:22.115Z,73.15
2023-01-18T19:14:48.885Z,72.60
2023-01-18T19:17:25.176Z,72.38
2023-01-18T19:19:56.435Z,73.18
2023-01-18T19:22:23.013Z,72.79
2023-01-18T19:24:49.412Z,73.02
2023-01-18T19:27:16.460Z,72.80
2023-01-18T19:29:43.270Z,72.70
2023-01-18T19:32:10.006Z,72.59
2023-01-18T19:34:38.399Z,72.34
2023-01-18T19:37:05.277Z,72.88
2023-01-18T19:39:34.520Z,72.37
2023-01-18T19:42:02.292Z,72.54
2023-01-18T19:44:28.986Z,72.38
2023-01-18T19:46:56.862Z,72.64
2023-01-18T19:49:25.474Z,72.79
2023-01-18T19:51:52.784Z,72.54
2023-01-18T19:54:19.191Z,72.44
2023-01-18T19:56:45.657Z,72.41
2023-01-18T19:59:14.359Z,72.61
2023-01-18T20:01:40.869Z,72.56
2023-01-18T20:04:08.041Z,72.42
2023-01-18T20:06:35.099Z,72.43
2023-01-18T20:09:01.866Z,72.85
2023-01-18T20:11:29.267Z,72.27
2023-01-18T20:13:56.263Z,71.84
2023-01-18T20:16:23.188Z,72.18
2023-01-18T20:18:49.744Z,72.23
2023-01-18T20:21:18.355Z,72.26
2023-01-18T20:23:45.534Z,72.53
2023-01-18T20:26:15.385Z,71.90
2023-01-18T20:28:43.642Z,72.25
2023-01-18T20:31:10.204Z,72.00
2023-01-18T20:33:38.282Z,72.46
2023-01-18T20:36:06.820Z,71.99
2023-01-18T20:38:34.101Z,72.18
2023-01-18T20:41:01.235Z,72.41
2023-01-18T20:43:28.041Z,71.72
2023-01-18T20:46:04.551Z,71.91
2023-01-18T20:48:32.886Z,72.03
2023-01-18T20:51:00.348Z,71.76
2023-01-18T20:53:28.160Z,71.97
2023-01-18T20:55:55.227Z,71.57
2023-01-18T20:58:22.763Z,71.74
2023-01-18T21:00:50.090Z,71.44
2023-01-18T21:03:19.543Z,71.64
2023-01-18T21:05:46.898Z,71.53
2023-01-18T21:08:14.452Z,71.70
2023-01-18T21:10:41.817Z,71.70
2023-01-18T21:13:09.935Z,71.92
2023-01-18T21:15:37.690Z,71.77
2023-01-18T21:18:05.934Z,71.48
2023-01-18T21:20:32.741Z,71.19
2023-01-18T21:23:01.161Z,71.08
2023-01-18T21:25:29.623Z,70.89
2023-01-18T21:27:58.013Z,71.21
2023-01-18T21:30:24.940Z,70.73
2023-01-18T21:32:51.342Z,70.99
2023-01-18T21:35:18.780Z,70.32
2023-01-18T21:37:45.211Z,70.79
2023-01-18T21:40:12.014Z,70.60
2023-01-18T21:42:56.792Z,70.72
2023-01-18T21:45:41.699Z,70.31
2023-01-18T21:48:10.967Z,70.41
2023-01-18T21:50:59.197Z,70.53
2023-01-18T21:53:43.980Z,70.21
2023-01-18T21:56:10.485Z,70.60
2023-01-18T21:58:55.001Z,69.93
2023-01-18T22:01:26.996Z,70.53
2023-01-18T22:04:13.215Z,70.64
2023-01-18T22:06:40.236Z,70.58
2023-01-18T22:09:07.924Z,70.63
2023-01-18T22:11:34.373Z,70.87
2023-01-18T22:14:02.702Z,71.00
2023-01-18T22:16:30.703Z,71.23
2023-01-18T22:18:58.595Z,70.35
2023-01-18T22:21:25.751Z,70.34
2023-01-18T22:23:53.036Z,70.58
2023-01-18T22:26:20.633Z,70.46
2023-01-18T22:28:47.318Z,70.44
2023-01-18T22:31:14.500Z,70.54
2023-01-18T22:33:41.703Z,70.70
2023-01-18T22:36:08.588Z,71.13
2023-01-18T22:38:35.173Z,71.16
2023-01-18T22:41:03.376Z,72.00
2023-01-18T22:43:36.314Z,72.18
2023-01-18T22:46:06.344Z,72.69
2023-01-18T22:48:37.304Z,73.46
2023-01-18T22:51:05.307Z,74.10
2023-01-18T22:53:32.661Z,75.37
2023-01-18T22:56:03.611Z,75.62
2023-01-18T22:58:30.577Z,76.54
2023-01-18T23:00:57.290Z,76.71
2023-01-18T23:03:23.764Z,77.03
2023-01-18T23:05:57.992Z,78.22
2023-01-18T23:08:42.454Z,78.68
2023-01-18T23:11:15.290Z,78.97
2023-01-18T23:13:43.276Z,79.37
2023-01-18T23:16:32.019Z,79.70
2023-01-18T23:18:59.566Z,79.25
2023-01-18T23:21:25.946Z,79.26
2023-01-18T23:23:52.379Z,79.25
2023-01-18T23:26:18.802Z,79.52
2023-01-18T23:28:45.325Z,79.22
2023-01-18T23:31:14.288Z,78.94
2023-01-18T23:33:40.826Z,79.18
2023-01-18T23:36:08.611Z,78.53
2023-01-18T23:38:53.520Z,78.03
2023-01-18T23:41:39.105Z,77.72
2023-01-18T23:44:24.376Z,76.98
2023-01-18T23:47:09.582Z,76.88
2023-01-18T23:49:54.816Z,76.79
2023-01-18T23:52:39.827Z,76.40
2023-01-18T23:55:06.830Z,76.18
2023-01-18T23:57:33.667Z,75.45
